Rampart, Alaska
Current Conditions -  °F | °C
As of 7:52 AM on Friday 28 Nov 2014 (Local Time) from PATA Reporting Station
Clear Clear  
Wind Chill:   Ceiling: Unl
Heat Index:   Visibility: 10mi
Dew Point: -7°   Wind: 0mph
Humidity: 72%   Direction: NA
Pressure: 30.23"   Gusts: NA
Location:  65.5°N, 150.17°W
Report Text: PATA 281652Z 00000KT 10SM CLR M18/M22 A3023 RMK AO2 SLP246 T11781217
Loading
Personal Weather Stations






























Interactive Weather Map New forecast layout! Learn more

10-Day Weather Forecast

Advertisements
Track Severe Weather on mobile